LIPE/BLQ METAR and TAF weather

Enter ICAO airport designator
Station Type Date Time Source
LIPE METAR 2019/02/21 11:20 UTC NOAA

LIPE 211120Z 31004KT 210V350 6000 NSC 12/04 Q1028


Station Type Date Time Source
LIPE Decoded METAR 2019/02/21 11:20 UTC NOAA

Bologna / Borgo Panigale, Italy (LIPE) 44-32N 011-18E 49M
Feb 21, 2019 - 06:20 AM EST / 2019.02.21 1120 UTC
Wind: from the NW (310 degrees) at 5 MPH (4 KT) (direction variable):0
Visibility: 3 mile(s):0
Temperature: 53 F (12 C)
Dew Point: 39 F (4 C)
Relative Humidity: 57%
Pressure (altimeter): 30.36 in. Hg (1028 hPa)
ob: LIPE 211120Z 31004KT 210V350 6000 NSC 12/04 Q1028
cycle: 11

Station Type Date Time Source
LIPE TAF 2019/02/21 12:21 UTC NOAA

TAF LIPE 211100Z 2112/2212 VRB05KT 7000 NSC
BECMG 2116/2118 2500 BR
TEMPO 2200/2207 0600 FG
BECMG 2209/2211 7000


Example: see airport list